Time;durP1;ratioP1;P1;durP2;ratioP2;P2;SDS_P1;SDS_P2;PMS_P1;PMS_P2;Temp;Humidity;BMP_temperature;BMP_pressure;BME280_temperature;BME280_humidity;BME280_pressure;Samples;Min_cycle;Max_cycle;Signal;HPM_P1;HPM_P2
2023/11/17 00:00:12;;;;;;;5.20;4.70;;;4.60;99.90;;;-141.84;100.00;89990.66;4990033;28;20310;-61
2023/11/17 00:02:42;;;;;;;6.90;5.20;;;4.50;99.90;;;-141.84;100.00;91314.81;4982961;28;20227;-60
2023/11/17 00:05:11;;;;;;;7.37;5.23;;;4.50;99.90;;;-141.84;100.00;84169.50;4975149;28;20595;-61
2023/11/17 00:07:39;;;;;;;5.80;5.00;;;4.50;99.90;;;-141.84;100.00;85756.25;4982078;28;20243;-60
2023/11/17 00:10:10;;;;;;;7.33;4.90;;;4.50;99.90;;;-141.84;100.00;88931.63;4982635;28;20366;-61
2023/11/17 00:12:41;;;;;;;6.30;5.07;;;4.50;99.90;;;-141.84;100.00;88402.22;4974268;28;20299;-62
2023/11/17 00:15:12;;;;;;;8.07;4.83;;;4.50;99.90;;;-141.84;100.00;83376.34;4960260;28;20288;-61
2023/11/17 00:17:40;;;;;;;8.30;5.40;;;4.50;99.90;;;-141.84;100.00;82583.34;4978778;28;20788;-61
2023/11/17 00:20:10;;;;;;;8.73;5.43;;;4.40;99.90;;;-141.84;100.00;82847.66;4963373;28;20243;-62
2023/11/17 00:22:38;;;;;;;5.70;4.87;;;4.40;99.90;;;-141.84;100.00;87343.63;4963583;28;20228;-61
2023/11/17 00:25:08;;;;;;;6.17;4.83;;;4.40;99.90;;;-141.84;100.00;91049.97;4955341;28;20258;-61
2023/11/17 00:27:37;;;;;;;6.70;5.13;;;4.40;99.90;;;-141.84;100.00;92904.41;4965887;28;20219;-62
2023/11/17 00:30:13;;;;;;;5.50;4.70;;;4.40;99.90;;;-141.84;100.00;93699.44;4965772;28;20241;-61
2023/11/17 00:32:41;;;;;;;6.93;5.00;;;4.40;99.90;;;-141.84;100.00;96085.44;4965462;28;20338;-61
2023/11/17 00:35:09;;;;;;;7.37;5.30;;;4.30;99.90;;;-141.84;100.00;96615.84;4958061;28;20720;-60
2023/11/17 00:37:39;;;;;;;9.27;5.60;;;4.30;99.90;;;-141.84;100.00;97146.31;4984401;28;20651;-60
2023/11/17 00:40:10;;;;;;;7.23;5.27;;;4.30;99.90;;;-141.84;100.00;95820.25;4984314;28;20257;-61
2023/11/17 00:42:38;;;;;;;6.43;4.97;;;4.30;99.90;;;-141.84;100.00;93169.38;4984482;28;20253;-62
2023/11/17 00:45:10;;;;;;;7.10;5.10;;;4.30;99.90;;;-141.84;100.00;92904.41;4977994;28;20251;-61
2023/11/17 00:47:38;;;;;;;6.80;4.93;;;4.20;99.90;;;-141.84;100.00;94759.69;4985114;28;20477;-62
2023/11/17 00:50:11;;;;;;;8.53;5.60;;;4.20;99.90;;;-141.84;100.00;97411.59;4985172;28;20726;-60
2023/11/17 00:52:41;;;;;;;6.90;5.70;;;4.20;99.90;;;-141.84;100.00;97676.88;4984974;28;20317;-60
2023/11/17 00:55:13;;;;;;;7.03;5.03;;;4.20;99.90;;;-141.84;100.00;97942.19;4977370;28;20226;-61
2023/11/17 00:57:42;;;;;;;6.47;5.20;;;4.20;99.90;;;-141.84;100.00;96615.84;4984953;28;20218;-60
2023/11/17 01:00:14;;;;;;;6.67;4.97;;;4.20;99.90;;;-141.84;100.00;95820.25;4984731;28;20316;-61
2023/11/17 01:02:42;;;;;;;7.00;5.03;;;4.20;99.90;;;-141.84;100.00;96085.44;4984813;28;20269;-61
2023/11/17 01:05:11;;;;;;;5.87;5.13;;;4.30;99.90;;;-141.84;100.00;96085.44;4977515;28;20254;-61
2023/11/17 01:07:40;;;;;;;6.27;5.67;;;4.20;99.90;;;-141.84;100.00;94759.69;4984643;28;20646;-61
2023/11/17 01:10:09;;;;;;;6.00;5.30;;;4.30;99.90;;;-141.84;100.00;90785.09;4984283;28;20317;-60
2023/11/17 01:12:38;;;;;;;5.87;5.27;;;4.30;99.90;;;-141.84;100.00;90255.47;4971892;28;20222;-61
2023/11/17 01:15:08;;;;;;;6.30;5.50;;;4.30;99.90;;;-141.84;100.00;90520.28;4961175;28;20219;-61
2023/11/17 01:17:37;;;;;;;7.13;5.70;;;4.30;99.90;;;-141.84;100.00;93699.44;4981792;28;20263;-60
2023/11/17 01:20:09;;;;;;;7.80;6.00;;;4.30;99.90;;;-141.84;100.00;87343.63;4964581;28;20239;-61
2023/11/17 01:22:38;;;;;;;10.70;6.47;;;4.30;99.90;;;-141.84;100.00;88137.56;4965337;28;20234;-61
2023/11/17 01:25:08;;;;;;;7.33;6.10;;;4.30;99.90;;;-141.84;100.00;84169.50;4956952;28;20258;-61
2023/11/17 01:27:36;;;;;;;7.13;6.00;;;4.30;99.90;;;-141.84;100.00;75717.34;4965303;28;20709;-62
2023/11/17 01:30:05;;;;;;;7.23;6.33;;;4.40;99.90;;;-141.84;100.00;66229.97;4965672;28;20338;-61
2023/11/17 01:32:33;;;;;;;7.97;6.53;;;4.40;99.90;;;-141.84;100.00;70707.31;4964323;28;20286;-62
2023/11/17 01:35:03;;;;;;;8.90;6.97;;;4.40;99.90;;;-141.84;100.00;63598.59;4957260;28;20738;-61
2023/11/17 01:37:32;;;;;;;8.67;6.43;;;4.50;99.90;;;-141.84;100.00;58603.75;4965379;28;20333;-62
2023/11/17 01:40:00;;;;;;;7.53;6.07;;;4.50;99.90;;;-141.84;99.82;49419.16;4964654;28;20311;-61
2023/11/17 01:42:33;;;;;;;7.03;6.33;;;4.60;99.90;;;-141.84;97.10;35949.50;4978618;28;20211;-61
2023/11/17 01:45:02;;;;;;;7.17;5.70;;;4.60;99.90;;;-141.84;92.60;21549.84;4976299;28;20290;-61
2023/11/17 01:47:31;;;;;;;6.83;5.80;;;4.80;99.90;;;-141.84;92.27;21277.41;4984330;28;20234;-61
2023/11/17 01:49:59;;;;;;;6.23;5.50;;;4.80;99.90;;;-141.84;92.72;21486.81;4984598;28;20322;-60
2023/11/17 01:52:29;;;;;;;8.97;5.83;;;4.80;99.90;;;-141.84;92.21;20785.44;4983946;28;20662;-60
2023/11/17 01:54:58;;;;;;;6.23;5.53;;;4.70;99.90;;;-141.84;94.63;23740.31;4980052;28;20650;-61
2023/11/17 01:57:30;;;;;;;7.07;5.90;;;4.70;99.90;;;-141.84;96.52;27764.41;4984008;28;20219;-61
2023/11/17 01:59:58;;;;;;;7.87;5.90;;;4.60;99.90;;;-141.84;98.39;36269.94;4982907;28;20239;-60
2023/11/17 02:02:27;;;;;;;7.07;6.10;;;4.50;99.90;;;-141.84;98.64;39303.91;4983637;28;20288;-61
2023/11/17 02:04:56;;;;;;;7.37;5.83;;;4.50;99.90;;;-141.84;98.56;38940.38;4981944;28;20305;-60
2023/11/17 02:07:39;;;;;;;7.27;6.00;;;4.40;99.90;;;-141.84;99.95;46798.88;4979695;28;20238;-61
2023/11/17 02:10:20;;;;;;;7.10;6.20;;;4.40;99.90;;;-141.84;100.00;51254.38;4964211;28;20286;-61
2023/11/17 02:12:59;;;;;;;8.13;6.50;;;4.30;99.90;;;-141.84;99.36;45227.56;4974453;28;20228;-61
2023/11/17 02:15:35;;;;;;;10.23;6.60;;;4.30;99.90;;;-141.84;99.43;43656.88;4974133;28;20207;-61
2023/11/17 02:18:06;;;;;;;7.07;6.33;;;4.20;99.90;;;-141.84;100.00;52565.75;4989414;28;20566;-60
2023/11/17 02:20:41;;;;;;;6.77;6.00;;;4.30;99.90;;;-141.84;98.48;39949.41;4987849;28;20665;-61
2023/11/17 02:23:16;;;;;;;7.40;5.80;;;4.30;99.90;;;-141.84;99.00;42086.81;4983048;28;20229;-61
2023/11/17 02:26:15;;;;;;;7.03;5.83;;;4.30;99.90;;;-141.84;100.00;54140.00;5005929;28;20309;-60
2023/11/17 02:28:59;;;;;;;8.10;6.10;;;4.20;99.90;;;-141.84;100.00;58603.75;5005800;28;20222;-61
2023/11/17 02:31:32;;;;;;;7.30;5.80;;;4.20;99.90;;;-141.84;100.00;50992.13;5006075;28;20243;-61
2023/11/17 02:34:03;;;;;;;7.57;6.13;;;4.10;99.90;;;-141.84;100.00;54927.34;5006293;28;20320;-60
2023/11/17 02:36:33;;;;;;;7.30;6.10;;;4.10;99.90;;;-141.84;100.00;50205.56;4993333;28;20221;-61
2023/11/17 02:39:13;;;;;;;7.30;5.77;;;4.10;99.90;;;-141.84;100.00;55452.34;4979237;28;20303;-61
2023/11/17 02:41:47;;;;;;;7.53;5.77;;;4.10;99.90;;;-141.84;100.00;62283.53;4985960;28;20239;-62
2023/11/17 02:44:16;;;;;;;7.13;5.80;;;4.10;99.90;;;-141.84;100.00;62546.50;4986370;28;20360;-61
2023/11/17 02:46:45;;;;;;;8.13;6.07;;;4.00;99.90;;;-141.84;100.00;66756.44;4986171;28;20239;-59
2023/11/17 02:49:29;;;;;;;7.13;6.03;;;3.60;99.90;;;-141.84;100.00;67546.31;4978417;28;20241;-60
2023/11/17 02:52:03;;;;;;;7.40;6.10;;;;;;;-141.84;100.00;64914.06;4986837;28;20233;-61
2023/11/17 02:54:34;;;;;;;7.57;5.97;;;;;;;-141.84;100.00;62809.50;4986958;28;20260;-60
2023/11/17 02:57:04;;;;;;;6.40;5.43;;;;;;;-141.84;100.00;53615.19;4977862;28;20238;-62
2023/11/17 02:59:35;;;;;;;7.57;6.10;;;;;;;-141.84;99.00;43133.44;4985591;28;20325;-62
2023/11/17 03:02:05;;;;;;;8.17;5.70;;;;;;;-141.84;96.99;34139.78;4986188;28;20298;-61
2023/11/17 03:04:37;;;;;;;7.33;5.60;;;;;;;-141.84;94.26;24501.25;4977745;28;20241;-60
2023/11/17 03:07:05;;;;;;;6.57;5.47;;;;;;;-141.84;94.76;23909.16;4959434;28;20721;-62
2023/11/17 03:09:34;;;;;;;6.13;5.30;;;;;;;-141.84;95.49;26259.72;4967266;28;20208;-61
2023/11/17 03:12:06;;;;;;;6.23;5.33;;;;;;;-141.84;93.49;22713.06;4973271;28;20321;-61
2023/11/17 03:14:35;;;;;;;7.37;5.77;;;;;;;-141.84;91.33;20332.13;4966190;28;20227;-61
2023/11/17 03:17:05;;;;;;;6.30;5.43;;;;;;;-141.84;88.72;19476.47;4959028;28;20315;-61
2023/11/17 03:19:33;;;;;;;6.47;5.43;;;;;;;-141.84;86.66;19039.59;4985121;28;20285;-64
2023/11/17 03:22:03;;;;;;;5.20;4.70;;;;;;;-141.84;86.92;19102.56;4985941;28;20323;-61
2023/11/17 03:24:34;;;;;;;5.67;5.07;;;;;;;-141.84;84.03;18935.97;4985843;28;20221;-61
2023/11/17 03:27:02;;;;;;;6.27;5.10;;;;;;;-141.84;83.52;18899.38;4977873;28;20238;-63
2023/11/17 03:29:31;;;;;;;6.00;5.40;;;;;;;-141.84;84.42;18899.38;4985691;28;20230;-62
2023/11/17 03:32:01;;;;;;;6.33;5.10;;;;;;;-141.84;85.36;18970.50;4986222;28;20249;-61
2023/11/17 03:34:32;;;;;;;5.53;4.93;;;;;;;-141.84;86.66;19047.72;4985503;28;20230;-61
2023/11/17 03:37:01;;;;;;;7.03;5.50;;;;;;;-141.84;87.21;19137.13;4977978;28;20227;-61
2023/11/17 03:39:31;;;;;;;6.73;6.03;;;;;;;-141.84;85.93;19037.56;4985760;28;20585;-61
2023/11/17 03:42:01;;;;;;;7.17;5.90;;;;;;;-141.84;86.42;19068.03;4984394;28;20234;-61
2023/11/17 03:44:30;;;;;;;6.37;5.77;;;;;;;-141.84;85.65;19037.56;4985412;28;20230;-61
2023/11/17 03:46:59;;;;;;;6.40;5.80;;;;;;;-141.84;86.40;19041.63;4977261;28;20242;-61
2023/11/17 03:49:27;;;;;;;6.93;6.23;;;;;;;-141.84;85.57;19023.34;4985489;28;20278;-61
2023/11/17 03:51:57;;;;;;;7.23;6.27;;;4.70;99.90;;;-141.84;85.89;19057.88;4984932;28;20247;-62
2023/11/17 03:54:25;;;;;;;6.67;5.97;;;5.00;99.90;;;-141.84;86.41;19070.06;4985936;28;20268;-61
2023/11/17 03:56:56;;;;;;;6.93;5.80;;;4.90;99.90;;;-141.84;87.63;19165.56;4984932;28;20317;-61
2023/11/17 03:59:25;;;;;;;7.03;6.33;;;4.80;99.90;;;-141.84;87.64;19198.09;4983469;28;20326;-61
2023/11/17 04:01:54;;;;;;;6.20;5.60;;;4.80;99.90;;;-141.84;87.28;19228.56;4983468;28;20239;-61
2023/11/17 04:04:25;;;;;;;6.73;6.03;;;4.80;99.90;;;-141.84;86.18;19066.00;4984892;28;20233;-61
2023/11/17 04:06:57;;;;;;;6.20;5.53;;;4.80;99.90;;;-141.84;88.72;19368.78;4984778;28;20594;-62
2023/11/17 04:09:27;;;;;;;7.07;6.13;;;4.90;99.90;;;-141.84;84.64;19011.13;4985547;28;20717;-63
2023/11/17 04:12:01;;;;;;;7.53;6.73;;;5.00;99.90;;;-141.84;83.53;18925.81;4983178;28;20764;-61
2023/11/17 04:14:38;;;;;;;6.93;6.23;;;4.90;99.90;;;-141.84;84.48;18996.91;4965812;28;20235;-61
2023/11/17 04:17:06;;;;;;;7.80;6.40;;;4.90;99.90;;;-141.84;83.48;18907.50;4976579;28;20234;-61
2023/11/17 04:19:35;;;;;;;7.20;6.50;;;4.80;99.90;;;-141.84;85.02;18964.41;4987443;28;20613;-61
2023/11/17 04:22:04;;;;;;;8.70;7.30;;;4.80;99.90;;;-141.84;85.13;18980.66;4984661;28;20293;-61
2023/11/17 04:24:34;;;;;;;7.67;6.87;;;4.70;99.90;;;-141.84;86.14;19057.88;4993897;28;20210;-61
2023/11/17 04:27:02;;;;;;;7.03;6.33;;;4.80;99.90;;;-141.84;83.89;18933.94;4996770;28;20311;-61
2023/11/17 04:29:31;;;;;;;6.67;6.07;;;4.80;99.90;;;-141.84;80.61;18838.44;5004465;28;20241;-62
2023/11/17 04:31:59;;;;;;;9.43;6.30;;;4.80;99.90;;;-141.84;80.91;18832.34;5003952;28;20741;-61
2023/11/17 04:34:27;;;;;;;7.03;5.77;;;4.80;99.90;;;-141.84;81.08;18862.81;5003091;28;20222;-62
2023/11/17 04:36:56;;;;;;;6.60;5.33;;;4.80;99.90;;;-141.84;80.87;18870.94;4992716;28;20208;-61
2023/11/17 04:39:24;;;;;;;6.83;6.20;;;5.10;99.90;;;-141.84;82.43;18917.66;4981510;28;20204;-61
2023/11/17 04:41:54;;;;;;;6.37;5.77;;;4.80;99.90;;;-141.84;80.85;18854.69;4984332;28;20277;-61
2023/11/17 04:44:22;;;;;;;6.57;5.90;;;4.80;99.90;;;-141.84;80.07;18838.44;4984534;28;20322;-61
2023/11/17 04:46:50;;;;;;;7.33;6.07;;;4.90;99.90;;;-141.84;79.22;18832.34;4983920;28;20273;-61
2023/11/17 04:49:19;;;;;;;6.67;6.07;;;5.00;99.90;;;-141.84;78.79;18824.22;4976272;28;20241;-62
2023/11/17 04:51:47;;;;;;;6.63;6.00;;;5.00;99.90;;;-141.84;77.41;18809.97;4984476;28;20664;-61
2023/11/17 04:54:16;;;;;;;6.60;6.00;;;5.00;99.90;;;-141.84;78.87;18807.94;4984699;28;20290;-60
2023/11/17 04:56:52;;;;;;;6.77;5.73;;;4.90;99.90;;;-141.84;79.88;18834.38;5079116;27;20671;-60
2023/11/17 04:59:20;;;;;;;6.87;6.17;;;5.00;99.90;;;-141.84;80.68;18844.53;5052292;28;20259;-60
2023/11/17 05:01:49;;;;;;;7.53;5.67;;;4.90;99.90;;;-141.84;81.74;18850.63;5059465;28;20286;-62
2023/11/17 05:04:17;;;;;;;6.43;5.83;;;4.90;99.90;;;-141.84;82.00;18903.44;5059638;28;20931;-61
2023/11/17 05:06:46;;;;;;;6.93;6.20;;;4.90;99.90;;;-141.84;80.34;18881.09;5059402;28;20208;-62
2023/11/17 05:09:15;;;;;;;6.40;5.80;;;5.00;99.90;;;-141.84;80.65;18820.16;5052055;28;20282;-60
2023/11/17 05:11:43;;;;;;;6.07;5.33;;;5.00;99.90;;;-141.84;80.56;18842.50;5059025;28;20319;-61
2023/11/17 05:14:13;;;;;;;5.03;4.53;;;4.90;99.90;;;-141.84;79.77;18818.09;5059677;28;20328;-61
2023/11/17 05:16:42;;;;;;;5.43;4.87;;;4.90;99.90;;;-141.84;78.63;18789.66;5058914;28;20676;-61
2023/11/17 05:19:13;;;;;;;4.80;4.40;;;4.90;99.90;;;-141.84;76.99;18832.34;5051276;28;20722;-62
2023/11/17 05:21:42;;;;;;;6.00;4.63;;;5.00;99.90;;;-141.84;77.44;18781.53;5059133;28;20261;-61
2023/11/17 05:24:10;;;;;;;4.87;4.37;;;4.90;99.90;;;-141.84;77.12;18795.75;5059978;28;20207;-62
2023/11/17 05:26:38;;;;;;;4.80;4.40;;;4.90;99.90;;;-141.84;77.09;18779.50;5059299;28;20794;-61
2023/11/17 05:29:07;;;;;;;4.53;4.13;;;4.90;99.90;;;-141.84;77.97;18797.78;5051176;28;20290;-60
2023/11/17 05:31:37;;;;;;;3.97;3.67;;;4.80;99.90;;;-141.84;79.18;18814.03;5059075;28;20333;-61
2023/11/17 05:34:05;;;;;;;5.07;4.57;;;4.80;99.90;;;-141.84;79.75;18846.56;5058790;28;20228;-62
2023/11/17 05:36:39;;;;;;;4.37;3.97;;;4.70;99.90;;;-141.84;78.89;18846.56;5059179;28;20223;-61
2023/11/17 05:39:09;;;;;;;4.73;4.33;;;4.70;99.90;;;-141.84;79.62;18818.09;5050774;28;20764;-61
2023/11/17 05:41:38;;;;;;;5.03;4.57;;;4.70;99.90;;;-141.84;78.72;18852.66;5058788;28;20231;-63
2023/11/17 05:44:08;;;;;;;6.10;4.80;;;4.70;99.90;;;-141.84;80.67;18875.00;5049334;28;20229;-62
2023/11/17 05:46:38;;;;;;;5.40;4.90;;;4.60;99.90;;;-141.84;80.38;18850.63;5038956;28;20724;-62
2023/11/17 05:49:07;;;;;;;5.77;5.17;;;4.70;99.90;;;-141.84;80.18;18856.72;5030307;28;20229;-60
2023/11/17 05:51:35;;;;;;;5.40;4.90;;;4.80;99.90;;;-141.84;80.93;18824.22;5039378;28;20252;-61
2023/11/17 05:54:04;;;;;;;5.87;4.70;;;4.80;99.90;;;-141.84;80.01;18852.66;5038564;28;20249;-62
2023/11/17 05:56:32;;;;;;;6.07;4.73;;;4.90;99.90;;;-141.84;79.99;18830.31;5053783;28;20756;-71
2023/11/17 05:59:00;;;;;;;5.63;5.13;;;4.90;99.90;;;-141.84;78.81;18828.28;5050826;28;20239;-70
2023/11/17 06:01:29;;;;;;;5.70;5.13;;;4.90;99.90;;;-141.84;79.04;18838.44;5058466;28;20239;-70
2023/11/17 06:03:59;;;;;;;5.43;4.93;;;4.90;99.90;;;-141.84;79.21;18840.47;5058021;28;20236;-68
2023/11/17 06:06:27;;;;;;;6.07;5.47;;;4.90;99.90;;;-141.84;78.80;18834.38;5055728;28;20669;-69
2023/11/17 06:08:56;;;;;;;5.90;5.30;;;4.90;99.90;;;-141.84;78.35;18789.66;5044816;28;20220;-69
2023/11/17 06:11:27;;;;;;;5.40;4.90;;;4.90;99.90;;;-141.84;78.17;18838.44;5041315;28;20303;-70
2023/11/17 06:13:56;;;;;;;5.43;4.90;;;4.80;99.90;;;-141.84;78.59;18840.47;5044758;28;20334;-70
2023/11/17 06:16:25;;;;;;;5.27;4.77;;;4.90;99.90;;;-141.84;77.06;18785.59;5044896;28;20797;-69
2023/11/17 06:18:54;;;;;;;5.80;4.90;;;5.00;99.90;;;-141.84;77.48;18814.03;5045750;28;20424;-68
2023/11/17 06:21:24;;;;;;;5.17;4.67;;;5.00;99.90;;;-141.84;77.52;18834.38;5040759;28;20213;-69
2023/11/17 06:23:52;;;;;;;5.37;4.87;;;4.90;99.90;;;-141.84;78.99;18824.22;5044673;28;20793;-69
2023/11/17 06:26:21;;;;;;;5.03;4.53;;;4.80;99.90;;;-141.84;78.72;18820.16;5044872;28;20252;-69
2023/11/17 06:28:50;;;;;;;6.60;4.80;;;4.80;99.90;;;-141.84;79.05;18844.53;5044360;28;20260;-69
2023/11/17 06:31:18;;;;;;;4.97;4.50;;;4.80;99.90;;;-141.84;80.27;18864.84;5037270;28;20232;-69
2023/11/17 06:33:46;;;;;;;5.33;4.83;;;4.80;99.90;;;-141.84;78.31;18844.53;5044912;28;20213;-69
2023/11/17 06:36:14;;;;;;;5.60;5.10;;;4.90;99.90;;;-141.84;79.23;18799.81;5045375;28;20799;-69
2023/11/17 06:38:45;;;;;;;5.97;4.97;;;4.80;99.90;;;-141.84;78.59;18830.31;5044373;28;20229;-68
2023/11/17 06:41:14;;;;;;;8.67;5.07;;;4.80;99.90;;;-141.84;77.81;18820.16;5036137;28;20244;-69
2023/11/17 06:43:43;;;;;;;4.90;4.50;;;4.80;99.90;;;-141.84;79.07;18866.88;5044648;28;20265;-69
2023/11/17 06:46:11;;;;;;;5.50;5.00;;;4.90;99.90;;;-141.84;78.64;18822.19;5044545;28;20612;-69
2023/11/17 06:48:40;;;;;;;5.70;4.80;;;4.80;99.90;;;-141.84;80.41;18844.53;5044552;28;20208;-68
2023/11/17 06:51:08;;;;;;;5.37;4.70;;;4.80;99.90;;;-141.84;80.73;18881.09;5036208;28;20300;-69
2023/11/17 06:53:36;;;;;;;5.87;4.90;;;4.80;99.90;;;-141.84;81.11;18850.63;5044028;28;20734;-70
2023/11/17 06:56:07;;;;;;;5.00;4.50;;;4.90;99.90;;;-141.84;79.91;18862.81;5043925;28;20245;-68
2023/11/17 06:58:35;;;;;;;5.83;5.23;;;4.90;99.90;;;-141.84;79.19;18846.56;5043690;28;20283;-68
2023/11/17 07:01:04;;;;;;;4.80;4.30;;;5.00;99.90;;;-141.84;80.23;18883.13;5028630;28;20323;-68
2023/11/17 07:03:33;;;;;;;5.50;5.00;;;4.90;99.90;;;-141.84;81.13;18903.44;5056924;28;20279;-69
2023/11/17 07:06:01;;;;;;;6.03;4.70;;;4.90;99.90;;;-141.84;80.10;18899.38;5044049;28;20224;-69
2023/11/17 07:08:29;;;;;;;5.27;4.33;;;4.90;99.90;;;-141.84;78.25;18830.31;5042550;28;20773;-69
2023/11/17 07:10:58;;;;;;;5.43;4.53;;;5.00;99.90;;;-141.84;79.01;18881.09;5038601;28;20229;-66
2023/11/17 07:13:28;;;;;;;4.90;4.40;;;5.10;99.90;;;-141.84;78.48;18836.41;5055151;28;20357;-68
2023/11/17 07:15:57;;;;;;;5.00;4.50;;;5.10;99.90;;;-141.84;79.17;18860.78;5053634;28;20232;-70
2023/11/17 07:18:25;;;;;;;5.23;4.73;;;5.10;99.90;;;-141.84;79.39;18875.00;5043426;28;20216;-68
2023/11/17 07:20:54;;;;;;;6.33;4.60;;;5.10;99.90;;;-141.84;79.45;18850.63;5043885;28;20268;-69
2023/11/17 07:23:22;;;;;;;5.07;4.63;;;5.10;99.90;;;-141.84;78.51;18846.56;5039618;28;20239;-69
2023/11/17 07:25:50;;;;;;;4.93;4.37;;;5.10;99.90;;;-141.84;78.15;18854.69;5043180;28;20324;-70
2023/11/17 07:28:21;;;;;;;5.30;4.80;;;5.20;99.90;;;-141.84;78.18;18830.31;5042963;28;20235;-70
2023/11/17 07:30:51;;;;;;;6.63;4.43;;;5.20;99.90;;;-141.84;79.12;18862.81;5043232;28;20213;-69
2023/11/17 07:33:19;;;;;;;5.53;5.03;;;5.10;99.90;;;-141.84;76.89;18807.94;5035866;28;20202;-68
2023/11/17 07:35:47;;;;;;;4.77;4.37;;;5.20;99.90;;;-141.84;77.58;18840.47;5042932;28;20243;-69
2023/11/17 07:38:15;;;;;;;5.50;5.00;;;5.20;99.90;;;-141.84;79.66;18881.09;5041614;28;20710;-69
2023/11/17 07:40:44;;;;;;;4.80;4.30;;;5.20;99.90;;;-141.84;78.67;18858.75;5041633;28;20328;-69
2023/11/17 07:43:12;;;;;;;5.57;4.23;;;5.30;99.90;;;-141.84;78.20;18838.44;5033051;28;20258;-70
2023/11/17 07:45:40;;;;;;;4.80;4.30;;;5.30;99.90;;;-141.84;76.19;18860.78;5040272;28;20704;-69
2023/11/17 07:48:11;;;;;;;4.60;4.20;;;5.40;99.90;;;-141.84;76.87;18854.69;5043459;28;20244;-70
2023/11/17 07:50:41;;;;;;;4.40;4.00;;;5.40;99.90;;;-141.84;76.31;18816.06;5039138;28;20328;-70
2023/11/17 07:53:09;;;;;;;4.40;4.00;;;5.40;99.90;;;-141.84;76.74;18842.50;5031290;28;20789;-69
2023/11/17 07:55:38;;;;;;;4.80;3.93;;;5.50;99.90;;;-141.84;76.37;18844.53;5041336;28;20284;-70
2023/11/17 07:58:07;;;;;;;4.50;4.10;;;5.50;99.90;;;-141.84;76.67;18862.81;5041888;28;20333;-70
2023/11/17 08:00:35;;;;;;;6.07;5.20;;;5.50;99.90;;;-141.84;76.13;18852.66;5042725;28;20212;-69
2023/11/17 08:03:04;;;;;;;4.90;4.50;;;5.50;99.90;;;-141.84;78.31;18870.94;5035322;28;20815;-70
2023/11/17 08:05:34;;;;;;;4.90;4.40;;;5.40;99.90;;;-141.84;78.41;18893.28;5042716;28;20315;-70
2023/11/17 08:08:02;;;;;;;6.30;4.40;;;5.50;99.90;;;-141.84;76.95;18887.19;5042826;28;20233;-70
2023/11/17 08:10:30;;;;;;;4.80;4.20;;;5.50;99.90;;;-141.84;76.40;18866.88;5042026;28;20281;-70
2023/11/17 08:12:59;;;;;;;4.17;3.77;;;5.60;99.90;;;-141.84;75.42;18818.09;5031353;28;20233;-70
2023/11/17 08:15:28;;;;;;;5.37;4.60;;;5.60;99.90;;;-141.84;76.28;18858.75;5023038;28;20205;-70
2023/11/17 08:17:57;;;;;;;4.27;3.67;;;5.50;99.90;;;-141.84;75.92;18848.59;5022807;28;20263;-70
2023/11/17 08:20:25;;;;;;;4.57;4.00;;;5.50;99.90;;;-141.84;77.50;18862.81;5022618;28;20661;-70
2023/11/17 08:22:54;;;;;;;4.47;4.00;;;5.40;99.90;;;-141.84;75.61;18858.75;5022671;28;20313;-69
2023/11/17 08:25:26;;;;;;;4.33;3.90;;;5.40;99.90;;;-141.84;77.21;18836.41;5017895;28;20570;-70
2023/11/17 08:27:54;;;;;;;3.77;3.47;;;5.40;99.90;;;-141.84;77.39;18864.84;5022620;28;20297;-69
2023/11/17 08:30:23;;;;;;;3.83;3.23;;;5.40;99.90;;;-141.84;76.77;18842.50;5022983;28;20700;-70
2023/11/17 08:32:51;;;;;;;4.47;3.60;;;5.40;99.90;;;-141.84;77.53;18852.66;5022754;28;20321;-71
2023/11/17 08:35:21;;;;;;;5.60;3.17;;;5.40;99.90;;;-141.84;76.37;18856.72;5015190;28;20230;-70
2023/11/17 08:37:50;;;;;;;4.67;3.43;;;5.50;99.90;;;-141.84;75.10;18858.75;5022683;28;20660;-70
2023/11/17 08:40:20;;;;;;;3.87;3.17;;;5.50;99.90;;;-141.84;75.93;18830.31;5022708;28;20317;-70
2023/11/17 08:42:49;;;;;;;3.93;3.60;;;5.50;99.90;;;-141.84;75.98;18856.72;5023933;28;20237;-69
2023/11/17 08:45:18;;;;;;;4.67;3.20;;;5.60;99.90;;;-141.84;75.13;18858.75;5034508;28;20260;-70
2023/11/17 08:47:49;;;;;;;4.43;2.80;;;5.60;99.90;;;-141.84;74.45;18840.47;5024943;28;20233;-70
2023/11/17 08:50:17;;;;;;;3.30;3.00;;;5.70;99.90;;;-141.84;74.48;18887.19;5020837;28;20704;-70
2023/11/17 08:52:47;;;;;;;3.63;3.00;;;5.60;99.90;;;-141.84;74.71;18842.50;5022303;28;20226;-69
2023/11/17 08:55:17;;;;;;;3.13;2.83;;;5.60;99.90;;;-141.84;73.32;18850.63;5018845;28;20228;-70
2023/11/17 08:57:48;;;;;;;3.27;2.80;;;5.70;99.90;;;-141.84;73.08;18870.94;5042081;28;20231;-68
2023/11/17 09:00:24;;;;;;;3.10;2.80;;;5.70;99.90;;;-141.84;72.94;18877.03;5042526;28;20692;-70
2023/11/17 09:02:54;;;;;;;4.00;3.60;;;5.70;99.90;;;-141.84;73.79;18893.28;5042261;28;20232;-70
2023/11/17 09:05:24;;;;;;;5.07;3.27;;;5.70;99.90;;;-141.84;74.19;18836.41;5036192;28;20316;-70
2023/11/17 09:07:52;;;;;;;4.40;2.80;;;5.70;99.90;;;-141.84;73.64;18852.66;5041941;28;20363;-70
2023/11/17 09:10:26;;;;;;;3.57;2.83;;;5.70;99.90;;;-141.84;74.57;18879.06;5041670;28;20227;-73
2023/11/17 09:12:56;;;;;;;2.90;2.43;;;5.80;99.90;;;-141.84;73.26;18856.72;5036615;28;20465;-68
2023/11/17 09:15:25;;;;;;;2.70;2.50;;;5.80;99.90;;;-141.84;72.76;18854.69;5039343;28;20216;-68
2023/11/17 09:17:54;;;;;;;3.17;2.63;;;5.80;99.90;;;-141.84;73.52;18852.66;5039769;28;20240;-70
2023/11/17 09:20:26;;;;;;;3.53;2.40;;;5.80;99.90;;;-141.84;73.89;18889.22;5027130;28;20225;-68
2023/11/17 09:22:55;;;;;;;3.80;2.50;;;5.80;99.90;;;-141.84;72.69;18866.88;5022360;28;20252;-67
2023/11/17 09:25:24;;;;;;;4.03;2.50;;;5.80;99.90;;;-141.84;74.03;18854.69;5020148;28;20295;-72
2023/11/17 09:27:56;;;;;;;3.83;2.90;;;5.80;99.90;;;-141.84;73.78;18875.00;5022579;28;20310;-69
2023/11/17 09:30:30;;;;;;;3.23;2.80;;;5.80;99.90;;;-141.84;73.56;18866.88;5038443;28;20205;-76
2023/11/17 09:33:02;;;;;;;3.20;2.50;;;5.90;99.90;;;-141.84;73.82;18870.94;5019479;28;20615;-76
2023/11/17 09:35:32;;;;;;;3.83;3.10;;;5.90;99.90;;;-141.84;73.01;18895.31;5013933;28;20244;-75
2023/11/17 09:38:04;;;;;;;2.90;2.60;;;6.00;99.90;;;-141.84;73.44;18883.13;5032581;28;20217;-76
2023/11/17 09:40:34;;;;;;;3.67;2.47;;;6.00;99.90;;;-141.84;73.41;18875.00;5038567;28;20299;-76
2023/11/17 09:43:15;;;;;;;3.17;2.50;;;6.00;99.90;;;-141.84;73.25;18879.06;5044789;28;20228;-76
2023/11/17 09:45:45;;;;;;;2.77;2.43;;;6.10;99.90;;;-141.84;71.99;18877.03;5047526;28;20255;-75
2023/11/17 09:48:16;;;;;;;5.27;2.33;;;6.20;99.90;;;-141.84;71.75;18913.59;5034300;28;20295;-76
2023/11/17 09:50:46;;;;;;;2.77;2.57;;;6.30;99.90;;;-141.84;71.13;18905.47;5033622;28;20222;-77
2023/11/17 09:53:17;;;;;;;2.83;2.47;;;6.40;99.90;;;-141.84;71.06;18911.56;5046623;28;20233;-75
2023/11/17 09:55:49;;;;;;;2.50;2.30;;;6.50;99.90;;;-141.84;69.85;18907.50;5052834;28;20228;-69
2023/11/17 09:58:20;;;;;;;2.80;2.40;;;6.60;99.90;;;-141.84;70.13;18856.72;5052701;28;20229;-72
2023/11/17 10:00:51;;;;;;;2.80;2.50;;;6.50;99.90;;;-141.84;72.05;18911.56;5052481;28;20193;-70
2023/11/17 10:03:22;;;;;;;2.80;2.60;;;6.50;99.90;;;-141.84;71.71;18891.25;5052262;28;20245;-71
2023/11/17 10:05:54;;;;;;;2.93;2.67;;;6.50;99.90;;;-141.84;70.44;18927.84;5052591;28;20232;-67
2023/11/17 10:08:24;;;;;;;5.57;2.97;;;6.50;99.90;;;-141.84;70.52;18907.50;5041245;28;20230;-71
2023/11/17 10:10:53;;;;;;;4.57;2.43;;;6.50;99.90;;;-141.84;72.11;18891.25;5032474;28;20779;-71
2023/11/17 10:13:25;;;;;;;4.43;2.57;;;6.50;99.90;;;-141.84;70.84;18897.34;5046541;28;20222;-71
2023/11/17 10:15:58;;;;;;;2.80;2.60;;;6.50;99.90;;;-141.84;71.38;18897.34;5032564;28;20289;-71
2023/11/17 10:18:29;;;;;;;2.57;2.30;;;6.60;99.90;;;-141.84;71.40;18885.16;5032923;28;20225;-70
2023/11/17 10:20:58;;;;;;;2.83;2.40;;;6.50;99.90;;;-141.84;71.20;18938.00;5039381;28;20594;-69
2023/11/17 10:23:27;;;;;;;3.17;2.60;;;6.60;99.90;;;-141.84;70.90;18913.59;5044480;28;20217;-69
2023/11/17 10:25:56;;;;;;;4.17;2.50;;;6.60;99.90;;;-141.84;70.72;18931.91;5038179;28;20777;-65
2023/11/17 10:28:27;;;;;;;2.50;2.30;;;6.70;99.90;;;-141.84;70.29;18952.22;5030152;28;20249;-66